sensor_id;sensor_type;location;lat;lon;timestamp;pressure;altitude;pressure_sealevel;temperature;humidity
56689;BME280;42565;53.342;-1.534;2023-07-29T00:02:03;97745.24;;;16.65;73.65
56689;BME280;42565;53.342;-1.534;2023-07-29T00:04:30;97743.45;;;15.61;74.84
56689;BME280;42565;53.342;-1.534;2023-07-29T00:06:58;97748.40;;;15.90;77.94
56689;BME280;42565;53.342;-1.534;2023-07-29T00:09:25;97743.65;;;14.89;78.63
56689;BME280;42565;53.342;-1.534;2023-07-29T00:11:52;97749.36;;;15.77;76.61
56689;BME280;42565;53.342;-1.534;2023-07-29T00:14:19;97746.38;;;15.82;76.52
56689;BME280;42565;53.342;-1.534;2023-07-29T00:16:46;97744.31;;;16.38;76.07
56689;BME280;42565;53.342;-1.534;2023-07-29T00:19:14;97743.25;;;16.31;75.64
56689;BME280;42565;53.342;-1.534;2023-07-29T00:21:41;97740.36;;;16.69;74.46
56689;BME280;42565;53.342;-1.534;2023-07-29T00:24:09;97742.33;;;15.75;77.46
56689;BME280;42565;53.342;-1.534;2023-07-29T00:26:36;97739.27;;;15.33;77.97
56689;BME280;42565;53.342;-1.534;2023-07-29T00:29:04;97737.38;;;15.60;78.01
56689;BME280;42565;53.342;-1.534;2023-07-29T00:31:31;97735.08;;;15.33;78.99
56689;BME280;42565;53.342;-1.534;2023-07-29T00:33:58;97734.53;;;15.56;78.92
56689;BME280;42565;53.342;-1.534;2023-07-29T00:36:26;97735.94;;;14.31;81.58
56689;BME280;42565;53.342;-1.534;2023-07-29T00:38:53;97721.35;;;15.74;79.56
56689;BME280;42565;53.342;-1.534;2023-07-29T00:41:21;97724.00;;;15.25;79.03
56689;BME280;42565;53.342;-1.534;2023-07-29T00:43:49;97718.34;;;15.95;76.66
56689;BME280;42565;53.342;-1.534;2023-07-29T00:46:17;97719.91;;;15.77;79.28
56689;BME280;42565;53.342;-1.534;2023-07-29T00:48:45;97715.14;;;15.69;79.54
56689;BME280;42565;53.342;-1.534;2023-07-29T00:51:12;97711.16;;;15.49;80.09
56689;BME280;42565;53.342;-1.534;2023-07-29T00:53:39;97709.39;;;14.65;81.67
56689;BME280;42565;53.342;-1.534;2023-07-29T00:56:07;97709.66;;;15.86;79.30
56689;BME280;42565;53.342;-1.534;2023-07-29T00:58:34;97711.09;;;14.84;82.30
56689;BME280;42565;53.342;-1.534;2023-07-29T01:01:02;97710.12;;;15.17;82.68
56689;BME280;42565;53.342;-1.534;2023-07-29T01:03:29;97712.48;;;14.44;84.13
56689;BME280;42565;53.342;-1.534;2023-07-29T01:06:04;97704.32;;;15.39;80.70
56689;BME280;42565;53.342;-1.534;2023-07-29T01:08:42;97702.86;;;14.61;82.48
56689;BME280;42565;53.342;-1.534;2023-07-29T01:11:30;97701.83;;;15.15;81.26
56689;BME280;42565;53.342;-1.534;2023-07-29T01:14:04;97707.55;;;14.85;82.88
56689;BME280;42565;53.342;-1.534;2023-07-29T01:16:38;97702.75;;;15.09;81.93
56689;BME280;42565;53.342;-1.534;2023-07-29T01:19:06;97704.83;;;15.17;81.60
56689;BME280;42565;53.342;-1.534;2023-07-29T01:21:40;97705.04;;;14.70;82.73
56689;BME280;42565;53.342;-1.534;2023-07-29T01:24:08;97700.47;;;15.68;79.63
56689;BME280;42565;53.342;-1.534;2023-07-29T01:26:35;97700.80;;;14.46;83.43
56689;BME280;42565;53.342;-1.534;2023-07-29T01:29:02;97702.53;;;14.88;83.31
56689;BME280;42565;53.342;-1.534;2023-07-29T01:31:33;97699.29;;;14.61;84.29
56689;BME280;42565;53.342;-1.534;2023-07-29T01:34:08;97704.65;;;14.98;84.51
56689;BME280;42565;53.342;-1.534;2023-07-29T01:36:38;97698.32;;;15.20;82.46
56689;BME280;42565;53.342;-1.534;2023-07-29T01:39:08;97697.93;;;15.99;78.61
56689;BME280;42565;53.342;-1.534;2023-07-29T01:41:36;97704.13;;;15.30;78.82
56689;BME280;42565;53.342;-1.534;2023-07-29T01:44:04;97699.34;;;15.28;80.46
56689;BME280;42565;53.342;-1.534;2023-07-29T01:46:33;97695.41;;;14.91;80.93
56689;BME280;42565;53.342;-1.534;2023-07-29T01:49:00;97691.67;;;16.09;76.65
56689;BME280;42565;53.342;-1.534;2023-07-29T01:51:27;97691.08;;;15.04;77.21
56689;BME280;42565;53.342;-1.534;2023-07-29T01:53:54;97689.45;;;16.48;74.18
56689;BME280;42565;53.342;-1.534;2023-07-29T01:56:22;97687.87;;;15.97;74.96
56689;BME280;42565;53.342;-1.534;2023-07-29T01:58:49;97686.74;;;16.31;74.11
56689;BME280;42565;53.342;-1.534;2023-07-29T02:01:17;97688.51;;;16.18;74.51
56689;BME280;42565;53.342;-1.534;2023-07-29T02:03:44;97685.72;;;16.57;73.44
56689;BME280;42565;53.342;-1.534;2023-07-29T02:06:10;97691.70;;;16.69;73.21
56689;BME280;42565;53.342;-1.534;2023-07-29T02:08:38;97689.22;;;16.23;74.46
56689;BME280;42565;53.342;-1.534;2023-07-29T02:11:05;97695.89;;;16.25;75.19
56689;BME280;42565;53.342;-1.534;2023-07-29T02:13:32;97697.82;;;16.29;73.73
56689;BME280;42565;53.342;-1.534;2023-07-29T02:15:59;97695.20;;;16.01;73.71
56689;BME280;42565;53.342;-1.534;2023-07-29T02:18:26;97695.66;;;15.77;72.24
56689;BME280;42565;53.342;-1.534;2023-07-29T02:20:53;97693.78;;;16.21;73.05
56689;BME280;42565;53.342;-1.534;2023-07-29T02:23:20;97697.22;;;15.52;76.38
56689;BME280;42565;53.342;-1.534;2023-07-29T02:25:47;97695.31;;;16.16;73.07
56689;BME280;42565;53.342;-1.534;2023-07-29T02:28:15;97689.40;;;16.94;70.98
56689;BME280;42565;53.342;-1.534;2023-07-29T02:30:42;97681.96;;;17.16;68.64
56689;BME280;42565;53.342;-1.534;2023-07-29T02:33:10;97679.57;;;16.63;69.58
56689;BME280;42565;53.342;-1.534;2023-07-29T02:35:37;97678.01;;;16.07;70.34
56689;BME280;42565;53.342;-1.534;2023-07-29T02:38:05;97671.86;;;16.70;68.73
56689;BME280;42565;53.342;-1.534;2023-07-29T02:40:31;97660.97;;;15.13;72.62
56689;BME280;42565;53.342;-1.534;2023-07-29T02:42:59;97664.53;;;15.18;72.98
56689;BME280;42565;53.342;-1.534;2023-07-29T02:45:26;97666.11;;;14.99;73.50
56689;BME280;42565;53.342;-1.534;2023-07-29T02:47:53;97663.24;;;15.44;73.63
56689;BME280;42565;53.342;-1.534;2023-07-29T02:50:20;97666.86;;;14.89;75.45
56689;BME280;42565;53.342;-1.534;2023-07-29T02:52:47;97673.39;;;14.25;77.30
56689;BME280;42565;53.342;-1.534;2023-07-29T02:55:14;97672.45;;;14.32;77.96
56689;BME280;42565;53.342;-1.534;2023-07-29T02:57:41;97669.04;;;14.46;76.99
56689;BME280;42565;53.342;-1.534;2023-07-29T03:00:10;97667.41;;;14.59;76.59
56689;BME280;42565;53.342;-1.534;2023-07-29T03:02:37;97661.25;;;13.44;80.44
56689;BME280;42565;53.342;-1.534;2023-07-29T03:05:05;97659.94;;;14.51;77.08
56689;BME280;42565;53.342;-1.534;2023-07-29T03:07:32;97660.63;;;14.09;75.47
56689;BME280;42565;53.342;-1.534;2023-07-29T03:10:00;97656.84;;;14.27;76.03
56689;BME280;42565;53.342;-1.534;2023-07-29T03:12:27;97652.96;;;14.15;74.31
56689;BME280;42565;53.342;-1.534;2023-07-29T03:14:54;97654.52;;;14.94;72.33
56689;BME280;42565;53.342;-1.534;2023-07-29T03:17:21;97649.27;;;15.23;71.42
56689;BME280;42565;53.342;-1.534;2023-07-29T03:19:48;97650.39;;;15.71;70.81
56689;BME280;42565;53.342;-1.534;2023-07-29T03:22:15;97644.52;;;15.85;70.09
56689;BME280;42565;53.342;-1.534;2023-07-29T03:24:42;97646.25;;;15.50;69.82
56689;BME280;42565;53.342;-1.534;2023-07-29T03:27:09;97645.75;;;15.72;69.80
56689;BME280;42565;53.342;-1.534;2023-07-29T03:29:36;97647.02;;;15.94;68.30
56689;BME280;42565;53.342;-1.534;2023-07-29T03:32:04;97648.51;;;15.74;68.77
56689;BME280;42565;53.342;-1.534;2023-07-29T03:34:31;97643.30;;;15.55;69.10
56689;BME280;42565;53.342;-1.534;2023-07-29T03:36:58;97636.47;;;15.37;69.87
56689;BME280;42565;53.342;-1.534;2023-07-29T03:39:25;97632.60;;;14.90;70.86
56689;BME280;42565;53.342;-1.534;2023-07-29T03:41:52;97635.86;;;15.57;70.03
56689;BME280;42565;53.342;-1.534;2023-07-29T03:44:20;97639.01;;;15.06;70.37
56689;BME280;42565;53.342;-1.534;2023-07-29T03:46:47;97635.82;;;15.18;70.66
56689;BME280;42565;53.342;-1.534;2023-07-29T03:49:15;97633.02;;;15.52;69.90
56689;BME280;42565;53.342;-1.534;2023-07-29T03:51:42;97637.75;;;15.72;70.40
56689;BME280;42565;53.342;-1.534;2023-07-29T03:54:09;97633.48;;;15.37;70.84
56689;BME280;42565;53.342;-1.534;2023-07-29T03:56:37;97630.16;;;15.36;69.78
56689;BME280;42565;53.342;-1.534;2023-07-29T03:59:05;97635.42;;;14.79;73.87
56689;BME280;42565;53.342;-1.534;2023-07-29T04:01:33;97629.70;;;14.20;73.93
56689;BME280;42565;53.342;-1.534;2023-07-29T04:04:00;97635.73;;;14.75;73.12
56689;BME280;42565;53.342;-1.534;2023-07-29T04:06:27;97633.69;;;14.17;74.09
56689;BME280;42565;53.342;-1.534;2023-07-29T04:08:54;97639.70;;;14.98;72.96
56689;BME280;42565;53.342;-1.534;2023-07-29T04:11:23;97637.82;;;14.62;72.63
56689;BME280;42565;53.342;-1.534;2023-07-29T04:13:50;97637.74;;;14.98;73.03
56689;BME280;42565;53.342;-1.534;2023-07-29T04:16:18;97645.77;;;14.59;73.36
56689;BME280;42565;53.342;-1.534;2023-07-29T04:18:45;97644.50;;;13.94;76.41
56689;BME280;42565;53.342;-1.534;2023-07-29T04:21:13;97636.32;;;14.11;77.08
56689;BME280;42565;53.342;-1.534;2023-07-29T04:23:39;97635.83;;;13.98;77.17
56689;BME280;42565;53.342;-1.534;2023-07-29T04:26:07;97638.02;;;13.96;78.03
56689;BME280;42565;53.342;-1.534;2023-07-29T04:28:34;97640.08;;;13.62;79.57
56689;BME280;42565;53.342;-1.534;2023-07-29T04:31:01;97639.52;;;14.13;78.17
56689;BME280;42565;53.342;-1.534;2023-07-29T04:33:29;97643.73;;;13.30;79.13
56689;BME280;42565;53.342;-1.534;2023-07-29T04:35:56;97638.23;;;14.40;77.58
56689;BME280;42565;53.342;-1.534;2023-07-29T04:38:29;97641.59;;;13.75;78.62
56689;BME280;42565;53.342;-1.534;2023-07-29T04:40:57;97641.61;;;14.84;76.50
56689;BME280;42565;53.342;-1.534;2023-07-29T04:43:27;97644.31;;;13.68;77.81
56689;BME280;42565;53.342;-1.534;2023-07-29T04:45:54;97639.91;;;14.63;76.28
56689;BME280;42565;53.342;-1.534;2023-07-29T04:48:21;97639.49;;;14.55;75.80
56689;BME280;42565;53.342;-1.534;2023-07-29T04:50:48;97642.17;;;13.99;77.73
56689;BME280;42565;53.342;-1.534;2023-07-29T04:53:16;97646.84;;;14.05;78.86
56689;BME280;42565;53.342;-1.534;2023-07-29T04:55:43;97648.19;;;14.23;77.56
56689;BME280;42565;53.342;-1.534;2023-07-29T04:58:11;97648.38;;;14.45;77.33
56689;BME280;42565;53.342;-1.534;2023-07-29T05:00:38;97647.93;;;14.77;75.96
56689;BME280;42565;53.342;-1.534;2023-07-29T05:03:06;97655.62;;;14.20;76.90
56689;BME280;42565;53.342;-1.534;2023-07-29T05:05:33;97659.25;;;14.33;77.49
56689;BME280;42565;53.342;-1.534;2023-07-29T05:08:01;97660.01;;;14.41;78.19
56689;BME280;42565;53.342;-1.534;2023-07-29T05:10:28;97659.34;;;13.72;78.06
56689;BME280;42565;53.342;-1.534;2023-07-29T05:12:55;97658.56;;;14.49;78.11
56689;BME280;42565;53.342;-1.534;2023-07-29T05:15:22;97655.11;;;14.16;77.56
56689;BME280;42565;53.342;-1.534;2023-07-29T05:17:49;97658.07;;;14.70;76.49
56689;BME280;42565;53.342;-1.534;2023-07-29T05:20:16;97658.07;;;14.75;76.81
56689;BME280;42565;53.342;-1.534;2023-07-29T05:22:43;97658.88;;;14.51;77.77
56689;BME280;42565;53.342;-1.534;2023-07-29T05:25:11;97664.13;;;14.10;79.10
56689;BME280;42565;53.342;-1.534;2023-07-29T05:27:38;97664.49;;;13.46;81.74
56689;BME280;42565;53.342;-1.534;2023-07-29T05:30:07;97666.30;;;14.04;79.50
56689;BME280;42565;53.342;-1.534;2023-07-29T05:32:34;97662.68;;;13.36;81.21
56689;BME280;42565;53.342;-1.534;2023-07-29T05:35:01;97663.58;;;13.66;82.27
56689;BME280;42565;53.342;-1.534;2023-07-29T05:37:28;97661.77;;;13.13;83.19
56689;BME280;42565;53.342;-1.534;2023-07-29T05:39:56;97667.13;;;14.19;80.19
56689;BME280;42565;53.342;-1.534;2023-07-29T05:42:23;97664.71;;;13.47;82.69
56689;BME280;42565;53.342;-1.534;2023-07-29T05:44:50;97661.60;;;13.34;84.57
56689;BME280;42565;53.342;-1.534;2023-07-29T05:47:18;97666.60;;;13.58;82.74
56689;BME280;42565;53.342;-1.534;2023-07-29T05:49:45;97663.43;;;14.17;80.15
56689;BME280;42565;53.342;-1.534;2023-07-29T05:52:13;97664.89;;;14.00;83.06
56689;BME280;42565;53.342;-1.534;2023-07-29T05:54:40;97660.78;;;13.89;80.16
56689;BME280;42565;53.342;-1.534;2023-07-29T05:57:07;97666.08;;;14.43;79.44
56689;BME280;42565;53.342;-1.534;2023-07-29T05:59:33;97662.25;;;14.94;78.45
56689;BME280;42565;53.342;-1.534;2023-07-29T06:02:00;97665.68;;;14.34;79.73
56689;BME280;42565;53.342;-1.534;2023-07-29T06:04:27;97664.41;;;13.66;80.85
56689;BME280;42565;53.342;-1.534;2023-07-29T06:06:54;97663.55;;;14.16;81.57
56689;BME280;42565;53.342;-1.534;2023-07-29T06:09:21;97664.86;;;14.00;79.51
56689;BME280;42565;53.342;-1.534;2023-07-29T06:11:49;97666.66;;;14.41;80.82
56689;BME280;42565;53.342;-1.534;2023-07-29T06:14:16;97667.92;;;15.11;78.02
56689;BME280;42565;53.342;-1.534;2023-07-29T06:16:43;97667.21;;;14.46;79.19
56689;BME280;42565;53.342;-1.534;2023-07-29T06:19:10;97675.10;;;14.32;80.66
56689;BME280;42565;53.342;-1.534;2023-07-29T06:21:37;97669.59;;;13.95;81.64
56689;BME280;42565;53.342;-1.534;2023-07-29T06:24:04;97663.39;;;14.59;80.21
56689;BME280;42565;53.342;-1.534;2023-07-29T06:26:31;97661.15;;;14.64;79.82
56689;BME280;42565;53.342;-1.534;2023-07-29T06:28:58;97662.33;;;14.45;82.25
56689;BME280;42565;53.342;-1.534;2023-07-29T06:31:25;97665.60;;;14.19;80.66
56689;BME280;42565;53.342;-1.534;2023-07-29T06:33:52;97667.66;;;14.18;82.07
56689;BME280;42565;53.342;-1.534;2023-07-29T06:36:19;97673.98;;;14.56;81.17
56689;BME280;42565;53.342;-1.534;2023-07-29T06:38:46;97677.18;;;14.64;83.14
56689;BME280;42565;53.342;-1.534;2023-07-29T06:41:14;97679.11;;;14.53;81.45
56689;BME280;42565;53.342;-1.534;2023-07-29T06:43:41;97673.55;;;14.39;81.93
56689;BME280;42565;53.342;-1.534;2023-07-29T06:46:09;97677.20;;;13.84;85.75
56689;BME280;42565;53.342;-1.534;2023-07-29T06:48:36;97677.69;;;13.86;84.07
56689;BME280;42565;53.342;-1.534;2023-07-29T06:51:04;97679.11;;;14.35;82.71
56689;BME280;42565;53.342;-1.534;2023-07-29T06:53:30;97680.32;;;12.91;86.58
56689;BME280;42565;53.342;-1.534;2023-07-29T06:55:57;97688.57;;;13.92;85.45
56689;BME280;42565;53.342;-1.534;2023-07-29T06:58:24;97687.89;;;13.85;83.27
56689;BME280;42565;53.342;-1.534;2023-07-29T07:00:51;97684.88;;;14.31;82.94
56689;BME280;42565;53.342;-1.534;2023-07-29T07:03:19;97679.35;;;14.77;82.05
56689;BME280;42565;53.342;-1.534;2023-07-29T07:05:46;97678.22;;;14.39;81.54
56689;BME280;42565;53.342;-1.534;2023-07-29T07:08:13;97677.49;;;14.90;81.31
56689;BME280;42565;53.342;-1.534;2023-07-29T07:10:41;97676.21;;;15.05;78.89
56689;BME280;42565;53.342;-1.534;2023-07-29T07:13:08;97675.92;;;15.22;79.58
56689;BME280;42565;53.342;-1.534;2023-07-29T07:15:36;97676.81;;;15.34;78.64
56689;BME280;42565;53.342;-1.534;2023-07-29T07:18:02;97681.25;;;14.91;78.84
56689;BME280;42565;53.342;-1.534;2023-07-29T07:20:30;97682.94;;;15.04;78.02
56689;BME280;42565;53.342;-1.534;2023-07-29T07:22:57;97675.62;;;15.53;77.58
56689;BME280;42565;53.342;-1.534;2023-07-29T07:25:24;97678.92;;;14.56;77.42
56689;BME280;42565;53.342;-1.534;2023-07-29T07:27:51;97682.50;;;15.79;75.89
56689;BME280;42565;53.342;-1.534;2023-07-29T07:30:19;97683.69;;;15.80;73.75
56689;BME280;42565;53.342;-1.534;2023-07-29T07:32:46;97680.50;;;15.96;73.29
56689;BME280;42565;53.342;-1.534;2023-07-29T07:35:13;97683.61;;;16.51;72.77
56689;BME280;42565;53.342;-1.534;2023-07-29T07:37:41;97683.10;;;15.79;73.81
56689;BME280;42565;53.342;-1.534;2023-07-29T07:40:09;97683.83;;;15.88;73.99
56689;BME280;42565;53.342;-1.534;2023-07-29T07:42:36;97688.80;;;15.85;75.29
56689;BME280;42565;53.342;-1.534;2023-07-29T07:45:04;97687.43;;;15.29;77.91
56689;BME280;42565;53.342;-1.534;2023-07-29T07:47:32;97686.82;;;14.52;77.84
56689;BME280;42565;53.342;-1.534;2023-07-29T07:49:59;97687.40;;;15.64;74.18
56689;BME280;42565;53.342;-1.534;2023-07-29T07:52:27;97686.23;;;15.22;73.43
56689;BME280;42565;53.342;-1.534;2023-07-29T07:54:55;97691.38;;;16.06;73.05
56689;BME280;42565;53.342;-1.534;2023-07-29T07:57:22;97688.07;;;16.11;71.75
56689;BME280;42565;53.342;-1.534;2023-07-29T07:59:50;97692.04;;;15.51;73.95
56689;BME280;42565;53.342;-1.534;2023-07-29T08:02:17;97688.61;;;15.85;73.83
56689;BME280;42565;53.342;-1.534;2023-07-29T08:04:44;97687.38;;;15.59;74.44
56689;BME280;42565;53.342;-1.534;2023-07-29T08:07:11;97687.94;;;15.61;74.60
56689;BME280;42565;53.342;-1.534;2023-07-29T08:09:39;97689.20;;;15.57;73.43
56689;BME280;42565;53.342;-1.534;2023-07-29T08:12:07;97687.85;;;16.46;71.15
56689;BME280;42565;53.342;-1.534;2023-07-29T08:14:34;97690.92;;;16.40;69.62
56689;BME280;42565;53.342;-1.534;2023-07-29T08:17:02;97688.71;;;16.26;69.91
56689;BME280;42565;53.342;-1.534;2023-07-29T08:19:29;97693.05;;;16.09;69.09
56689;BME280;42565;53.342;-1.534;2023-07-29T08:21:57;97693.12;;;15.73;71.51
56689;BME280;42565;53.342;-1.534;2023-07-29T08:24:24;97693.16;;;15.74;71.58
56689;BME280;42565;53.342;-1.534;2023-07-29T08:26:52;97692.70;;;15.65;72.64
56689;BME280;42565;53.342;-1.534;2023-07-29T08:29:19;97689.73;;;15.51;73.47
56689;BME280;42565;53.342;-1.534;2023-07-29T08:31:46;97683.85;;;16.47;69.26
56689;BME280;42565;53.342;-1.534;2023-07-29T08:34:13;97693.73;;;17.25;67.79
56689;BME280;42565;53.342;-1.534;2023-07-29T08:36:41;97681.50;;;16.11;69.70
56689;BME280;42565;53.342;-1.534;2023-07-29T08:39:08;97684.53;;;16.54;68.61
56689;BME280;42565;53.342;-1.534;2023-07-29T08:41:41;97686.25;;;16.20;67.90
56689;BME280;42565;53.342;-1.534;2023-07-29T08:44:12;97688.93;;;16.66;68.26
56689;BME280;42565;53.342;-1.534;2023-07-29T08:46:44;97685.93;;;16.81;70.38
56689;BME280;42565;53.342;-1.534;2023-07-29T08:49:11;97683.46;;;16.66;67.97
56689;BME280;42565;53.342;-1.534;2023-07-29T08:51:39;97687.05;;;17.54;66.46
56689;BME280;42565;53.342;-1.534;2023-07-29T08:54:09;97689.12;;;18.10;61.30
56689;BME280;42565;53.342;-1.534;2023-07-29T08:56:37;97685.68;;;17.49;61.78
56689;BME280;42565;53.342;-1.534;2023-07-29T08:59:05;97679.44;;;17.28;62.99
56689;BME280;42565;53.342;-1.534;2023-07-29T09:01:32;97687.91;;;16.19;64.58
56689;BME280;42565;53.342;-1.534;2023-07-29T09:04:00;97693.97;;;17.28;61.41
56689;BME280;42565;53.342;-1.534;2023-07-29T09:06:28;97688.91;;;16.52;60.82
56689;BME280;42565;53.342;-1.534;2023-07-29T09:08:55;97689.65;;;17.64;60.27
56689;BME280;42565;53.342;-1.534;2023-07-29T09:11:23;97689.52;;;17.99;59.00
56689;BME280;42565;53.342;-1.534;2023-07-29T09:13:50;97694.03;;;17.84;57.33
56689;BME280;42565;53.342;-1.534;2023-07-29T09:16:18;97694.14;;;17.72;57.23
56689;BME280;42565;53.342;-1.534;2023-07-29T09:18:48;97683.29;;;17.95;56.74
56689;BME280;42565;53.342;-1.534;2023-07-29T09:21:16;97685.19;;;17.91;57.10
56689;BME280;42565;53.342;-1.534;2023-07-29T09:23:44;97683.33;;;17.94;57.08
56689;BME280;42565;53.342;-1.534;2023-07-29T09:26:12;97684.99;;;18.41;56.88
56689;BME280;42565;53.342;-1.534;2023-07-29T09:28:40;97682.62;;;18.16;55.50
56689;BME280;42565;53.342;-1.534;2023-07-29T09:31:07;97684.27;;;18.39;54.26
56689;BME280;42565;53.342;-1.534;2023-07-29T09:33:45;97682.33;;;17.89;55.96
56689;BME280;42565;53.342;-1.534;2023-07-29T09:36:13;97681.89;;;18.41;55.89
56689;BME280;42565;53.342;-1.534;2023-07-29T09:38:41;97689.83;;;18.41;54.88
56689;BME280;42565;53.342;-1.534;2023-07-29T09:41:11;97689.73;;;18.37;55.60
56689;BME280;42565;53.342;-1.534;2023-07-29T09:43:39;97685.56;;;18.81;52.93
56689;BME280;42565;53.342;-1.534;2023-07-29T09:46:05;97680.15;;;18.93;54.83
56689;BME280;42565;53.342;-1.534;2023-07-29T09:48:33;97689.57;;;18.51;54.68
56689;BME280;42565;53.342;-1.534;2023-07-29T09:51:10;97687.36;;;19.37;53.12
56689;BME280;42565;53.342;-1.534;2023-07-29T09:53:40;97687.90;;;18.66;53.54
56689;BME280;42565;53.342;-1.534;2023-07-29T09:56:08;97685.98;;;19.36;51.38
56689;BME280;42565;53.342;-1.534;2023-07-29T09:58:36;97679.24;;;20.11;50.00
56689;BME280;42565;53.342;-1.534;2023-07-29T10:01:03;97678.08;;;19.76;49.42
56689;BME280;42565;53.342;-1.534;2023-07-29T10:03:31;97692.47;;;17.80;52.09
56689;BME280;42565;53.342;-1.534;2023-07-29T10:06:00;97694.22;;;18.49;51.82
56689;BME280;42565;53.342;-1.534;2023-07-29T10:08:29;97682.31;;;17.89;51.49
56689;BME280;42565;53.342;-1.534;2023-07-29T10:10:58;97683.40;;;19.09;51.66
56689;BME280;42565;53.342;-1.534;2023-07-29T10:13:26;97683.09;;;18.23;49.58
56689;BME280;42565;53.342;-1.534;2023-07-29T10:15:54;97691.22;;;19.03;50.37
56689;BME280;42565;53.342;-1.534;2023-07-29T10:18:22;97689.18;;;18.82;49.17
56689;BME280;42565;53.342;-1.534;2023-07-29T10:20:51;97693.06;;;18.44;50.74
56689;BME280;42565;53.342;-1.534;2023-07-29T10:23:22;97700.47;;;18.25;52.00
56689;BME280;42565;53.342;-1.534;2023-07-29T10:25:54;97697.55;;;18.40;51.12
56689;BME280;42565;53.342;-1.534;2023-07-29T10:28:26;97704.00;;;17.99;50.18
56689;BME280;42565;53.342;-1.534;2023-07-29T10:30:56;97705.67;;;18.43;50.83
56689;BME280;42565;53.342;-1.534;2023-07-29T10:33:24;97717.08;;;18.03;52.41
56689;BME280;42565;53.342;-1.534;2023-07-29T10:35:52;97713.95;;;17.92;54.97
56689;BME280;42565;53.342;-1.534;2023-07-29T10:38:22;97715.73;;;17.93;56.11
56689;BME280;42565;53.342;-1.534;2023-07-29T10:40:52;97718.73;;;17.69;56.13
56689;BME280;42565;53.342;-1.534;2023-07-29T10:43:24;97718.37;;;18.01;57.21
56689;BME280;42565;53.342;-1.534;2023-07-29T10:45:52;97718.34;;;18.62;55.76
56689;BME280;42565;53.342;-1.534;2023-07-29T10:49:25;97713.52;;;18.45;56.15
56689;BME280;42565;53.342;-1.534;2023-07-29T10:51:51;97710.67;;;17.39;57.29
56689;BME280;42565;53.342;-1.534;2023-07-29T10:54:19;97719.83;;;17.18;60.20
56689;BME280;42565;53.342;-1.534;2023-07-29T10:56:48;97728.67;;;17.03;61.85
56689;BME280;42565;53.342;-1.534;2023-07-29T10:59:32;97728.49;;;17.05;62.04
56689;BME280;42565;53.342;-1.534;2023-07-29T11:02:00;97727.67;;;17.23;61.62
56689;BME280;42565;53.342;-1.534;2023-07-29T11:04:29;97730.24;;;16.23;60.28
56689;BME280;42565;53.342;-1.534;2023-07-29T11:07:29;97731.20;;;17.43;59.92
56689;BME280;42565;53.342;-1.534;2023-07-29T11:09:59;97721.55;;;17.58;60.65
56689;BME280;42565;53.342;-1.534;2023-07-29T11:12:35;97721.38;;;18.32;58.26
56689;BME280;42565;53.342;-1.534;2023-07-29T11:15:04;97724.81;;;17.76;60.96
56689;BME280;42565;53.342;-1.534;2023-07-29T11:17:41;97723.54;;;17.61;60.36
56689;BME280;42565;53.342;-1.534;2023-07-29T11:20:09;97719.27;;;18.25;59.29
56689;BME280;42565;53.342;-1.534;2023-07-29T11:22:37;97720.26;;;18.34;55.07
56689;BME280;42565;53.342;-1.534;2023-07-29T11:25:07;97732.15;;;18.85;55.13
56689;BME280;42565;53.342;-1.534;2023-07-29T11:27:34;97721.91;;;19.33;53.34
56689;BME280;42565;53.342;-1.534;2023-07-29T11:30:04;97730.53;;;19.75;52.62
56689;BME280;42565;53.342;-1.534;2023-07-29T11:32:31;97734.89;;;19.05;51.77
56689;BME280;42565;53.342;-1.534;2023-07-29T11:35:02;97736.68;;;19.73;51.16
56689;BME280;42565;53.342;-1.534;2023-07-29T11:37:29;97737.24;;;18.83;51.92
56689;BME280;42565;53.342;-1.534;2023-07-29T11:39:57;97734.98;;;18.93;52.68
56689;BME280;42565;53.342;-1.534;2023-07-29T11:42:24;97741.44;;;18.69;52.17
56689;BME280;42565;53.342;-1.534;2023-07-29T11:44:52;97741.20;;;18.51;52.36
56689;BME280;42565;53.342;-1.534;2023-07-29T11:47:19;97744.19;;;19.29;53.28
56689;BME280;42565;53.342;-1.534;2023-07-29T11:49:47;97736.74;;;19.59;53.54
56689;BME280;42565;53.342;-1.534;2023-07-29T11:52:14;97734.13;;;19.66;51.39
56689;BME280;42565;53.342;-1.534;2023-07-29T11:54:41;97731.52;;;20.44;48.33
56689;BME280;42565;53.342;-1.534;2023-07-29T11:57:14;97728.22;;;20.84;46.27
56689;BME280;42565;53.342;-1.534;2023-07-29T11:59:42;97735.07;;;20.85;46.62
56689;BME280;42565;53.342;-1.534;2023-07-29T12:02:12;97739.98;;;20.01;48.04
56689;BME280;42565;53.342;-1.534;2023-07-29T12:04:40;97739.45;;;20.30;46.49
56689;BME280;42565;53.342;-1.534;2023-07-29T12:07:08;97745.81;;;19.07;47.73
56689;BME280;42565;53.342;-1.534;2023-07-29T12:09:35;97742.65;;;19.26;45.95
56689;BME280;42565;53.342;-1.534;2023-07-29T12:12:03;97738.41;;;19.93;45.29
56689;BME280;42565;53.342;-1.534;2023-07-29T12:14:31;97739.36;;;19.32;46.41
56689;BME280;42565;53.342;-1.534;2023-07-29T12:17:00;97742.90;;;20.37;45.18
56689;BME280;42565;53.342;-1.534;2023-07-29T12:19:32;97746.30;;;19.87;44.31
56689;BME280;42565;53.342;-1.534;2023-07-29T12:21:59;97749.73;;;19.89;44.72
56689;BME280;42565;53.342;-1.534;2023-07-29T12:24:27;97747.07;;;19.83;44.81
56689;BME280;42565;53.342;-1.534;2023-07-29T12:26:56;97744.81;;;19.95;46.23
56689;BME280;42565;53.342;-1.534;2023-07-29T12:29:24;97743.88;;;19.94;44.89
56689;BME280;42565;53.342;-1.534;2023-07-29T12:31:57;97750.43;;;20.13;44.85
56689;BME280;42565;53.342;-1.534;2023-07-29T12:34:26;97743.26;;;19.29;44.67
56689;BME280;42565;53.342;-1.534;2023-07-29T12:36:54;97744.91;;;19.83;44.54
56689;BME280;42565;53.342;-1.534;2023-07-29T12:39:25;97744.68;;;19.85;45.52
56689;BME280;42565;53.342;-1.534;2023-07-29T12:41:54;97745.38;;;20.57;44.66
56689;BME280;42565;53.342;-1.534;2023-07-29T12:44:23;97745.41;;;19.94;47.07
56689;BME280;42565;53.342;-1.534;2023-07-29T12:46:51;97746.72;;;20.73;45.23
56689;BME280;42565;53.342;-1.534;2023-07-29T12:49:18;97741.86;;;20.48;44.21
56689;BME280;42565;53.342;-1.534;2023-07-29T12:51:46;97749.52;;;20.39;44.08
56689;BME280;42565;53.342;-1.534;2023-07-29T12:54:13;97742.46;;;21.66;42.55
56689;BME280;42565;53.342;-1.534;2023-07-29T12:56:40;97749.16;;;21.13;43.83